createdAt,value
2019-02-18T00:02:10.545Z,16.73
2019-02-18T00:04:37.720Z,16.30
2019-02-18T00:07:14.153Z,18.10
2019-02-18T00:09:34.452Z,19.00
2019-02-18T00:12:01.954Z,20.93
2019-02-18T00:14:29.467Z,21.67
2019-02-18T00:16:56.927Z,23.27
2019-02-18T00:19:24.384Z,22.77
2019-02-18T00:21:51.870Z,23.73
2019-02-18T00:24:19.376Z,22.27
2019-02-18T00:26:46.869Z,21.40
2019-02-18T00:29:14.328Z,21.93
2019-02-18T00:31:41.871Z,22.40
2019-02-18T00:34:09.375Z,22.20
2019-02-18T00:36:36.898Z,23.17
2019-02-18T00:39:05.000Z,22.10
2019-02-18T00:41:32.481Z,21.40
2019-02-18T00:44:00.240Z,19.97
2019-02-18T00:46:27.701Z,20.67
2019-02-18T00:48:55.155Z,19.73
2019-02-18T00:51:22.665Z,21.03
2019-02-18T00:53:50.150Z,21.03
2019-02-18T00:56:17.628Z,18.40
2019-02-18T00:58:45.135Z,18.17
2019-02-18T01:01:12.652Z,16.83
2019-02-18T01:03:40.160Z,15.80
2019-02-18T01:06:07.661Z,15.60
2019-02-18T01:08:35.177Z,15.63
2019-02-18T01:11:02.676Z,15.70
2019-02-18T01:13:30.127Z,16.80
2019-02-18T01:15:57.618Z,16.27
2019-02-18T01:18:25.065Z,16.53
2019-02-18T01:20:52.566Z,15.73
2019-02-18T01:23:20.080Z,17.40
2019-02-18T01:25:47.610Z,17.10
2019-02-18T01:28:15.025Z,16.90
2019-02-18T01:30:42.485Z,19.00
2019-02-18T01:33:10.015Z,18.47
2019-02-18T01:35:37.517Z,18.43
2019-02-18T01:38:04.989Z,18.60
2019-02-18T01:40:32.493Z,18.70
2019-02-18T01:42:59.938Z,19.13
2019-02-18T01:45:27.393Z,19.77
2019-02-18T01:47:54.940Z,19.60
2019-02-18T01:50:22.375Z,19.93
2019-02-18T01:52:49.837Z,18.37
2019-02-18T01:55:17.365Z,18.93
2019-02-18T01:57:44.863Z,18.00
2019-02-18T02:00:14.075Z,19.17
2019-02-18T02:02:41.565Z,17.43
2019-02-18T02:05:09.868Z,17.77
2019-02-18T02:07:37.315Z,19.27
2019-02-18T02:10:05.118Z,18.73
2019-02-18T02:12:32.594Z,18.17
2019-02-18T02:15:00.146Z,19.90
2019-02-18T02:17:27.705Z,20.37
2019-02-18T02:19:55.176Z,18.97
2019-02-18T02:22:22.644Z,18.63
2019-02-18T02:24:50.097Z,19.53
2019-02-18T02:27:17.599Z,18.90
2019-02-18T02:29:45.049Z,20.27
2019-02-18T02:32:12.512Z,19.57
2019-02-18T02:34:40.344Z,18.00
2019-02-18T02:37:07.800Z,18.70
2019-02-18T02:39:35.254Z,16.97
2019-02-18T02:42:02.758Z,17.60
2019-02-18T02:44:30.203Z,17.47
2019-02-18T02:46:57.703Z,17.23
2019-02-18T02:49:25.151Z,17.77
2019-02-18T02:51:52.663Z,16.30
2019-02-18T02:54:20.149Z,16.83
2019-02-18T02:56:47.620Z,18.97
2019-02-18T02:59:15.069Z,18.77
2019-02-18T03:01:42.568Z,19.10
2019-02-18T03:04:10.043Z,17.33
2019-02-18T03:06:37.616Z,18.27
2019-02-18T03:09:07.461Z,17.53
2019-02-18T03:11:34.976Z,18.27
2019-02-18T03:14:02.484Z,17.47
2019-02-18T03:16:29.926Z,20.40
2019-02-18T03:18:57.646Z,19.00
2019-02-18T03:21:25.069Z,20.47
2019-02-18T03:23:52.541Z,19.03
2019-02-18T03:26:19.999Z,17.87
2019-02-18T03:29:37.422Z,17.70
2019-02-18T03:32:04.892Z,18.23
2019-02-18T03:34:38.782Z,18.93
2019-02-18T03:37:06.508Z,17.23
2019-02-18T03:39:33.969Z,18.63
2019-02-18T03:42:01.584Z,18.17
2019-02-18T03:44:29.195Z,17.73
2019-02-18T03:46:56.645Z,19.67
2019-02-18T03:49:24.109Z,19.40
2019-02-18T03:51:51.810Z,18.20
2019-02-18T03:54:19.250Z,18.63
2019-02-18T03:56:46.697Z,19.67
2019-02-18T03:59:14.186Z,21.93
2019-02-18T04:01:41.693Z,20.13
2019-02-18T04:04:09.154Z,20.67
2019-02-18T04:06:36.585Z,20.90
2019-02-18T04:09:04.966Z,22.27
2019-02-18T04:11:32.497Z,21.37
2019-02-18T04:13:59.939Z,21.37
2019-02-18T04:16:27.397Z,21.37
2019-02-18T04:18:54.881Z,23.27
2019-02-18T04:21:22.332Z,23.23
2019-02-18T04:23:49.997Z,24.83
2019-02-18T04:26:17.461Z,23.43
2019-02-18T04:28:44.909Z,22.37
2019-02-18T04:31:12.413Z,21.23
2019-02-18T04:33:39.870Z,18.00
2019-02-18T04:36:08.038Z,20.30
2019-02-18T04:38:35.559Z,17.43
2019-02-18T04:41:03.010Z,18.13
2019-02-18T04:43:30.471Z,18.63
2019-02-18T04:45:57.983Z,18.90
2019-02-18T04:48:25.447Z,19.43
2019-02-18T04:50:52.905Z,18.47
2019-02-18T04:53:20.407Z,20.17
2019-02-18T04:55:47.895Z,19.10
2019-02-18T04:58:15.381Z,19.13
2019-02-18T05:00:42.835Z,19.10
2019-02-18T05:03:10.321Z,18.40
2019-02-18T05:05:37.815Z,17.67
2019-02-18T05:08:05.345Z,19.13
2019-02-18T05:10:32.813Z,18.13
2019-02-18T05:13:00.267Z,17.80
2019-02-18T05:15:27.806Z,19.37
2019-02-18T05:17:55.303Z,18.97
2019-02-18T05:20:22.860Z,18.70
2019-02-18T05:22:50.319Z,20.07
2019-02-18T05:25:17.868Z,20.17
2019-02-18T05:27:45.276Z,20.53
2019-02-18T05:30:12.769Z,20.90
2019-02-18T05:32:40.587Z,20.80
2019-02-18T05:35:08.048Z,19.50
2019-02-18T05:37:35.546Z,19.33
2019-02-18T05:40:03.135Z,22.67
2019-02-18T05:42:30.570Z,22.13
2019-02-18T05:44:58.082Z,21.20
2019-02-18T05:47:25.523Z,20.73
2019-02-18T05:49:52.983Z,21.53
2019-02-18T05:52:20.480Z,24.40
2019-02-18T05:54:47.993Z,23.00
2019-02-18T05:57:15.429Z,24.03
2019-02-18T05:59:42.944Z,25.90
2019-02-18T06:02:10.428Z,26.47
2019-02-18T06:04:37.959Z,24.77
2019-02-18T06:07:05.483Z,23.33
2019-02-18T06:09:33.042Z,22.90
2019-02-18T06:12:00.543Z,24.30
2019-02-18T06:14:28.006Z,24.07
2019-02-18T06:16:55.501Z,22.63
2019-02-18T06:19:23.004Z,21.27
2019-02-18T06:21:50.525Z,24.30
2019-02-18T06:24:18.001Z,23.60
2019-02-18T06:26:45.463Z,23.83
2019-02-18T06:29:12.950Z,24.00
2019-02-18T06:31:40.481Z,23.50
2019-02-18T06:34:07.913Z,24.50
2019-02-18T06:36:35.783Z,23.93
2019-02-18T06:39:04.825Z,24.20
2019-02-18T06:41:32.342Z,23.60
2019-02-18T06:43:59.866Z,26.07
2019-02-18T06:46:50.078Z,25.33
2019-02-18T06:49:19.836Z,23.80
2019-02-18T06:51:47.293Z,24.90
2019-02-18T06:54:14.745Z,22.30
2019-02-18T06:57:07.966Z,21.30
2019-02-18T06:59:38.912Z,22.57
2019-02-18T07:02:28.668Z,22.63
2019-02-18T07:05:07.610Z,23.10
2019-02-18T07:07:57.390Z,24.20
2019-02-18T07:10:44.418Z,21.73
2019-02-18T07:13:11.941Z,21.80
2019-02-18T07:15:39.387Z,22.77
2019-02-18T07:18:06.854Z,21.90
2019-02-18T07:20:34.352Z,24.03
2019-02-18T07:23:01.832Z,25.03
2019-02-18T07:25:29.359Z,25.53
2019-02-18T07:27:56.853Z,24.27
2019-02-18T07:30:24.321Z,24.47
2019-02-18T07:32:51.822Z,25.00
2019-02-18T07:35:19.277Z,27.20
2019-02-18T07:37:46.788Z,25.47
2019-02-18T07:40:14.264Z,25.27
2019-02-18T07:42:41.662Z,21.30
2019-02-18T07:45:09.357Z,18.47
2019-02-18T07:47:36.838Z,17.57
2019-02-18T07:50:05.012Z,17.70
2019-02-18T07:52:32.474Z,15.57
2019-02-18T07:54:59.942Z,16.87
2019-02-18T07:57:27.443Z,17.63
2019-02-18T07:59:55.154Z,17.23
2019-02-18T08:02:22.606Z,17.07
2019-02-18T08:04:50.066Z,16.73
2019-02-18T08:07:17.557Z,17.37
2019-02-18T08:09:45.045Z,17.80
2019-02-18T08:12:12.532Z,17.67
2019-02-18T08:14:40.046Z,17.27
2019-02-18T08:17:07.493Z,17.10
2019-02-18T08:19:35.015Z,17.20
2019-02-18T08:22:02.484Z,17.57
2019-02-18T08:24:29.977Z,17.43
2019-02-18T08:26:57.758Z,17.37
2019-02-18T08:29:25.220Z,17.17
2019-02-18T08:31:52.714Z,18.00
2019-02-18T08:34:20.176Z,16.97
2019-02-18T08:36:47.665Z,18.13
2019-02-18T08:39:15.163Z,18.70
2019-02-18T08:41:42.622Z,18.17
2019-02-18T08:44:10.171Z,18.33
2019-02-18T08:46:37.628Z,18.87
2019-02-18T08:49:05.086Z,17.33
2019-02-18T08:51:32.582Z,17.60
2019-02-18T08:54:00.201Z,17.47
2019-02-18T08:56:27.685Z,17.03
2019-02-18T08:58:55.146Z,16.43
2019-02-18T09:01:22.652Z,15.90
2019-02-18T09:03:50.207Z,16.40
2019-02-18T09:06:17.671Z,16.80
2019-02-18T09:08:45.207Z,15.13
2019-02-18T09:11:12.694Z,13.40
2019-02-18T09:13:40.205Z,13.67
2019-02-18T09:16:07.779Z,14.90
2019-02-18T09:18:35.289Z,12.63
2019-02-18T09:21:02.748Z,12.50
2019-02-18T09:23:42.942Z,13.97
2019-02-18T09:26:11.170Z,13.73
2019-02-18T09:28:38.632Z,12.97
2019-02-18T09:31:06.077Z,11.83
2019-02-18T09:33:33.552Z,11.53
2019-02-18T09:36:01.064Z,10.53
2019-02-18T09:38:28.552Z,11.60
2019-02-18T09:40:56.013Z,12.40
2019-02-18T09:43:23.508Z,10.60
2019-02-18T09:45:51.017Z,11.63
2019-02-18T09:48:19.010Z,10.77
2019-02-18T09:50:46.522Z,10.33
2019-02-18T09:53:20.040Z,11.10
2019-02-18T09:55:47.456Z,8.80
2019-02-18T09:58:14.966Z,9.20
2019-02-18T10:00:42.460Z,10.47
2019-02-18T10:03:10.174Z,9.67
2019-02-18T10:05:37.693Z,9.27
2019-02-18T10:08:05.255Z,8.10
2019-02-18T10:10:32.674Z,8.50
2019-02-18T10:13:00.131Z,9.00
2019-02-18T10:15:27.777Z,8.33
2019-02-18T10:17:55.265Z,7.37
2019-02-18T10:20:22.737Z,7.63
2019-02-18T10:22:50.295Z,7.40
2019-02-18T10:25:17.852Z,7.40
2019-02-18T10:27:45.331Z,7.53
2019-02-18T10:30:12.832Z,6.43
2019-02-18T10:32:40.322Z,6.10
2019-02-18T10:35:09.018Z,6.20
2019-02-18T10:37:36.561Z,5.80
2019-02-18T10:40:04.620Z,6.60
2019-02-18T10:42:32.168Z,6.30
2019-02-18T10:44:59.667Z,5.93
2019-02-18T10:47:27.171Z,6.03
2019-02-18T10:49:54.626Z,6.20
2019-02-18T10:52:22.677Z,6.57
2019-02-18T10:54:50.260Z,5.77
2019-02-18T10:57:17.768Z,5.97
2019-02-18T10:59:45.306Z,5.40
2019-02-18T11:02:12.993Z,5.63
2019-02-18T11:04:40.492Z,5.57
2019-02-18T11:07:08.465Z,6.03
2019-02-18T11:09:35.992Z,6.63
2019-02-18T11:12:03.455Z,6.23
2019-02-18T11:14:30.952Z,6.67
2019-02-18T11:16:58.443Z,6.03
2019-02-18T11:19:25.933Z,5.67
2019-02-18T11:21:53.440Z,6.80
2019-02-18T11:24:20.934Z,5.53
2019-02-18T11:26:48.658Z,6.33
2019-02-18T11:29:16.178Z,6.07
2019-02-18T11:31:43.660Z,6.80
2019-02-18T11:34:11.183Z,7.57
2019-02-18T11:36:38.681Z,6.93
2019-02-18T11:39:11.021Z,7.20
2019-02-18T11:41:38.511Z,6.67
2019-02-18T11:44:06.449Z,7.13
2019-02-18T11:46:33.951Z,10.00
2019-02-18T11:49:01.403Z,8.63
2019-02-18T11:51:28.926Z,6.50
2019-02-18T11:53:56.408Z,7.97
2019-02-18T11:56:23.931Z,7.90
2019-02-18T11:58:51.826Z,8.43
2019-02-18T12:01:19.307Z,7.90
2019-02-18T12:03:46.828Z,8.83
2019-02-18T12:06:14.322Z,8.27
2019-02-18T12:08:42.103Z,9.23
2019-02-18T12:11:09.596Z,7.93
2019-02-18T12:13:37.082Z,8.27
2019-02-18T12:16:05.020Z,8.17
2019-02-18T12:18:32.521Z,9.43
2019-02-18T12:21:00.082Z,9.20
2019-02-18T12:23:27.597Z,8.73
2019-02-18T12:25:55.080Z,8.73
2019-02-18T12:28:22.546Z,9.50
2019-02-18T12:30:50.074Z,8.93
2019-02-18T12:33:17.547Z,9.43
2019-02-18T12:35:45.399Z,9.50
2019-02-18T12:38:12.944Z,9.80
2019-02-18T12:40:40.451Z,9.67
2019-02-18T12:43:07.946Z,9.23
2019-02-18T12:45:35.509Z,10.70
2019-02-18T12:48:03.022Z,9.33
2019-02-18T12:50:30.567Z,9.73
2019-02-18T12:52:58.064Z,9.90
2019-02-18T12:55:25.679Z,8.40
2019-02-18T12:57:53.227Z,8.97
2019-02-18T13:00:20.775Z,8.50
2019-02-18T13:02:48.255Z,8.23
2019-02-18T13:05:15.729Z,8.13
2019-02-18T13:07:43.250Z,8.10
2019-02-18T13:10:11.244Z,8.20
2019-02-18T13:12:39.492Z,8.70
2019-02-18T13:15:09.038Z,8.80
2019-02-18T13:17:36.530Z,8.13
2019-02-18T13:20:04.340Z,7.77
2019-02-18T13:22:32.258Z,8.20
2019-02-18T13:24:59.738Z,8.00
2019-02-18T13:27:27.245Z,8.30
2019-02-18T13:29:57.062Z,8.60
2019-02-18T13:32:25.049Z,8.67
2019-02-18T13:34:52.605Z,7.47
2019-02-18T13:37:20.117Z,8.20
2019-02-18T13:39:47.671Z,8.87
2019-02-18T13:42:15.170Z,8.10
2019-02-18T13:44:42.770Z,8.93
2019-02-18T13:47:10.261Z,8.30
2019-02-18T13:49:38.086Z,8.00
2019-02-18T13:52:06.031Z,8.70
2019-02-18T13:54:33.517Z,8.17
2019-02-18T13:57:01.037Z,8.00
2019-02-18T13:59:28.543Z,8.43
2019-02-18T14:01:56.056Z,8.40
2019-02-18T14:04:23.523Z,8.07
2019-02-18T14:06:54.496Z,8.20
2019-02-18T14:09:21.931Z,8.80
2019-02-18T14:11:49.464Z,8.00
2019-02-18T14:14:18.048Z,8.43
2019-02-18T14:16:45.570Z,8.33
2019-02-18T14:19:16.130Z,7.90
2019-02-18T14:21:44.294Z,8.37
2019-02-18T14:24:11.756Z,7.77
2019-02-18T14:26:39.242Z,8.80
2019-02-18T14:29:07.117Z,7.87
2019-02-18T14:31:34.665Z,8.10
2019-02-18T14:34:02.188Z,8.03
2019-02-18T14:36:29.883Z,8.07
2019-02-18T14:39:00.105Z,8.50
2019-02-18T14:41:27.615Z,8.27
2019-02-18T14:43:55.191Z,8.50
2019-02-18T14:46:22.671Z,8.83
2019-02-18T14:48:50.174Z,7.33
2019-02-18T14:51:17.791Z,8.43
2019-02-18T14:53:45.395Z,8.53
2019-02-18T14:56:16.348Z,8.03
2019-02-18T14:58:44.079Z,8.63
2019-02-18T15:01:11.666Z,7.87
2019-02-18T15:03:39.199Z,7.73
2019-02-18T15:06:06.765Z,8.57
2019-02-18T15:08:34.332Z,8.30
2019-02-18T15:11:01.852Z,8.57
2019-02-18T15:13:29.449Z,8.23
2019-02-18T15:15:59.280Z,8.17
2019-02-18T15:18:27.860Z,7.70
2019-02-18T15:20:55.362Z,7.70
2019-02-18T15:23:22.921Z,7.87
2019-02-18T15:25:50.352Z,7.97
2019-02-18T15:28:20.191Z,7.63
2019-02-18T15:30:49.762Z,9.17
2019-02-18T15:33:17.260Z,8.40
2019-02-18T15:35:44.788Z,6.70
2019-02-18T15:38:12.397Z,7.37
2019-02-18T15:40:39.908Z,8.03
2019-02-18T15:43:07.471Z,7.47
2019-02-18T15:45:35.353Z,7.93
2019-02-18T15:48:02.985Z,6.80
2019-02-18T15:50:30.456Z,8.17
2019-02-18T15:52:57.964Z,8.40
2019-02-18T15:55:25.581Z,7.07
2019-02-18T15:57:53.093Z,8.50
2019-02-18T16:00:22.014Z,8.67
2019-02-18T16:02:49.867Z,10.20
2019-02-18T16:05:17.562Z,9.47
2019-02-18T16:07:45.052Z,9.63
2019-02-18T16:10:12.501Z,10.03
2019-02-18T16:12:40.024Z,10.23
2019-02-18T16:15:07.738Z,10.60
2019-02-18T16:17:35.283Z,10.47
2019-02-18T16:20:04.042Z,10.77
2019-02-18T16:22:31.523Z,11.53
2019-02-18T16:24:58.967Z,9.97
2019-02-18T16:27:26.518Z,10.30
2019-02-18T16:29:53.976Z,10.93
2019-02-18T16:32:21.481Z,11.07
2019-02-18T16:34:49.014Z,10.23
2019-02-18T16:37:16.802Z,10.33
2019-02-18T16:39:44.279Z,11.30
2019-02-18T16:42:11.792Z,10.93
2019-02-18T16:44:39.325Z,10.33
2019-02-18T16:47:06.782Z,11.07
2019-02-18T16:49:34.882Z,11.10
2019-02-18T16:52:02.376Z,18.00
2019-02-18T16:54:29.970Z,12.60
2019-02-18T16:56:57.444Z,12.80
2019-02-18T16:59:24.935Z,12.77
2019-02-18T17:01:52.419Z,11.13
2019-02-18T17:04:19.897Z,14.13
2019-02-18T17:06:47.398Z,14.30
2019-02-18T17:09:14.910Z,13.43
2019-02-18T17:11:42.427Z,12.60
2019-02-18T17:14:09.896Z,12.43
2019-02-18T17:16:37.411Z,13.10
2019-02-18T17:19:04.977Z,13.73
2019-02-18T17:21:32.459Z,13.27
2019-02-18T17:23:59.947Z,11.37
2019-02-18T17:26:27.630Z,12.27
2019-02-18T17:28:55.396Z,13.23
2019-02-18T17:31:22.873Z,12.63
2019-02-18T17:33:50.393Z,10.87
2019-02-18T17:36:17.894Z,10.97
2019-02-18T17:38:45.360Z,10.70
2019-02-18T17:41:12.913Z,11.47
2019-02-18T17:43:40.414Z,11.07
2019-02-18T17:46:08.282Z,11.80
2019-02-18T17:48:35.790Z,12.03
2019-02-18T17:51:03.325Z,13.57
2019-02-18T17:53:30.770Z,12.97
2019-02-18T17:55:58.252Z,14.87
2019-02-18T17:58:25.762Z,14.40
2019-02-18T18:00:54.480Z,16.33
2019-02-18T18:03:22.379Z,19.30
2019-02-18T18:05:49.883Z,15.77
2019-02-18T18:08:17.374Z,14.20
2019-02-18T18:10:44.873Z,15.00
2019-02-18T18:13:12.335Z,14.30
2019-02-18T18:15:39.839Z,15.23
2019-02-18T18:18:07.324Z,12.63
2019-02-18T18:20:35.514Z,12.27
2019-02-18T18:23:02.915Z,12.93
2019-02-18T18:25:30.389Z,12.10
2019-02-18T18:27:57.902Z,11.60
2019-02-18T18:30:25.450Z,12.07
2019-02-18T18:32:52.883Z,12.20
2019-02-18T18:35:20.369Z,14.63
2019-02-18T18:37:47.893Z,13.80
2019-02-18T18:40:15.520Z,14.90
2019-02-18T18:42:42.994Z,13.53
2019-02-18T18:45:11.436Z,11.87
2019-02-18T18:47:38.885Z,13.17
2019-02-18T18:50:09.212Z,14.30
2019-02-18T18:52:36.699Z,11.53
2019-02-18T18:55:04.561Z,11.60
2019-02-18T18:57:32.075Z,12.57
2019-02-18T18:59:59.548Z,12.50
2019-02-18T19:02:27.085Z,13.23
2019-02-18T19:04:54.552Z,12.93
2019-02-18T19:07:22.055Z,12.73
2019-02-18T19:09:49.562Z,14.13
2019-02-18T19:12:17.042Z,11.33
2019-02-18T19:14:44.519Z,12.20
2019-02-18T19:17:12.039Z,11.90
2019-02-18T19:19:39.538Z,13.30
2019-02-18T19:22:07.493Z,12.83
2019-02-18T19:24:34.996Z,12.40
2019-02-18T19:27:02.943Z,13.37
2019-02-18T19:29:30.417Z,13.07
2019-02-18T19:31:57.935Z,12.73
2019-02-18T19:34:25.453Z,12.00
2019-02-18T19:36:52.943Z,13.83
2019-02-18T19:39:20.440Z,17.50
2019-02-18T19:41:47.986Z,15.33
2019-02-18T19:44:15.780Z,17.53
2019-02-18T19:46:43.232Z,17.60
2019-02-18T19:49:10.727Z,14.90
2019-02-18T19:51:38.228Z,18.33
2019-02-18T19:54:05.703Z,17.77
2019-02-18T19:56:33.198Z,15.73
2019-02-18T19:59:00.754Z,16.43
2019-02-18T20:01:28.249Z,16.33
2019-02-18T20:03:55.727Z,15.23
2019-02-18T20:06:23.312Z,15.87
2019-02-18T20:08:50.809Z,14.40
2019-02-18T20:11:18.378Z,14.23
2019-02-18T20:13:45.921Z,15.60
2019-02-18T20:16:13.424Z,15.73
2019-02-18T20:18:40.952Z,15.63
2019-02-18T20:21:08.505Z,17.20
2019-02-18T20:23:36.111Z,16.50
2019-02-18T20:26:03.571Z,16.43
2019-02-18T20:28:31.071Z,16.77
2019-02-18T20:30:58.599Z,16.73
2019-02-18T20:33:26.328Z,17.70
2019-02-18T20:35:53.866Z,16.43
2019-02-18T20:38:21.357Z,16.63
2019-02-18T20:40:48.892Z,16.70
2019-02-18T20:43:16.381Z,17.13
2019-02-18T20:45:43.908Z,16.70
2019-02-18T20:48:11.434Z,15.13
2019-02-18T20:50:39.332Z,16.50
2019-02-18T20:53:06.888Z,18.53
2019-02-18T20:55:34.397Z,18.63
2019-02-18T20:58:01.929Z,18.20
2019-02-18T21:00:29.744Z,19.30
2019-02-18T21:02:57.253Z,19.03
2019-02-18T21:05:24.732Z,19.07
2019-02-18T21:07:52.803Z,19.20
2019-02-18T21:10:20.323Z,17.20
2019-02-18T21:12:47.813Z,17.30
2019-02-18T21:15:15.313Z,18.17
2019-02-18T21:17:43.028Z,18.10
2019-02-18T21:20:10.880Z,18.27
2019-02-18T21:22:38.366Z,19.90
2019-02-18T21:25:06.199Z,19.17
2019-02-18T21:27:33.704Z,20.53
2019-02-18T21:30:01.260Z,22.20
2019-02-18T21:32:28.716Z,22.83
2019-02-18T21:34:56.208Z,21.70
2019-02-18T21:37:23.770Z,21.20
2019-02-18T21:39:51.193Z,21.33
2019-02-18T21:42:18.979Z,20.93
2019-02-18T21:44:46.494Z,21.53
2019-02-18T21:47:14.038Z,19.43
2019-02-18T21:49:41.541Z,21.30
2019-02-18T21:52:09.036Z,19.97
2019-02-18T21:54:36.486Z,19.50
2019-02-18T21:57:03.967Z,18.67
2019-02-18T21:59:31.855Z,19.03
2019-02-18T22:01:59.333Z,18.73
2019-02-18T22:04:26.824Z,20.20
2019-02-18T22:06:54.534Z,19.80
2019-02-18T22:09:21.995Z,20.10
2019-02-18T22:11:50.459Z,20.00
2019-02-18T22:14:17.971Z,21.17
2019-02-18T22:16:45.880Z,20.60
2019-02-18T22:19:13.410Z,22.30
2019-02-18T22:21:40.874Z,23.87
2019-02-18T22:24:08.364Z,23.03
2019-02-18T22:26:35.910Z,21.40
2019-02-18T22:29:03.402Z,22.80
2019-02-18T22:31:30.910Z,22.27
2019-02-18T22:33:58.373Z,21.40
2019-02-18T22:36:25.980Z,21.40
2019-02-18T22:38:53.485Z,20.33
2019-02-18T22:41:20.960Z,22.37
2019-02-18T22:43:48.483Z,20.47
2019-02-18T22:46:15.943Z,21.67
2019-02-18T22:48:43.729Z,21.87
2019-02-18T22:51:11.209Z,20.33
2019-02-18T22:53:39.087Z,21.43
2019-02-18T22:56:06.604Z,21.60
2019-02-18T22:58:34.074Z,22.63
2019-02-18T23:01:02.914Z,21.73
2019-02-18T23:03:30.471Z,23.20
2019-02-18T23:05:57.954Z,23.37
2019-02-18T23:08:25.433Z,23.00
2019-02-18T23:10:52.910Z,24.77
2019-02-18T23:13:20.589Z,24.33
2019-02-18T23:15:48.213Z,23.70
2019-02-18T23:18:15.691Z,24.70
2019-02-18T23:20:43.162Z,24.27
2019-02-18T23:23:11.029Z,22.23
2019-02-18T23:25:38.483Z,21.63
2019-02-18T23:28:05.973Z,21.80
2019-02-18T23:30:34.057Z,24.03
2019-02-18T23:33:01.528Z,21.20
2019-02-18T23:35:29.158Z,22.17
2019-02-18T23:37:56.702Z,21.47
2019-02-18T23:40:24.176Z,21.60
2019-02-18T23:42:51.651Z,22.67
2019-02-18T23:45:19.146Z,23.33
2019-02-18T23:47:46.610Z,23.37
2019-02-18T23:50:14.080Z,23.07
2019-02-18T23:52:41.599Z,22.87
2019-02-18T23:55:09.066Z,22.67
2019-02-18T23:57:36.543Z,21.40
